createdAt,value
2019-04-20T00:00:59.884Z,7.25
2019-04-20T00:03:30.992Z,6.50
2019-04-20T00:05:59.310Z,6.83
2019-04-20T00:08:31.157Z,5.87
2019-04-20T00:11:07.262Z,7.03
2019-04-20T00:13:36.666Z,6.70
2019-04-20T00:15:57.799Z,6.53
2019-04-20T00:18:38.202Z,6.47
2019-04-20T00:21:03.828Z,6.58
2019-04-20T00:23:36.750Z,6.25
2019-04-20T00:26:33.341Z,6.03
2019-04-20T00:29:06.889Z,6.58
2019-04-20T00:31:39.244Z,6.50
2019-04-20T00:33:59.441Z,6.33
2019-04-20T00:36:20.184Z,6.90
2019-04-20T00:38:53.418Z,6.72
2019-04-20T00:41:19.462Z,6.67
2019-04-20T00:43:49.188Z,6.65
2019-04-20T00:46:24.963Z,6.33
2019-04-20T00:48:55.893Z,6.92
2019-04-20T00:51:35.171Z,6.45
2019-04-20T00:53:51.479Z,7.47
2019-04-20T00:56:18.241Z,6.67
2019-04-20T00:58:55.784Z,6.20
2019-04-20T01:01:37.466Z,6.50
2019-04-20T01:04:06.473Z,6.37
2019-04-20T01:06:52.522Z,6.45
2019-04-20T01:09:22.614Z,6.62
2019-04-20T01:11:52.887Z,6.95
2019-04-20T01:14:27.265Z,7.60
2019-04-20T01:16:59.941Z,6.62
2019-04-20T01:19:21.210Z,7.12
2019-04-20T01:21:57.866Z,7.42
2019-04-20T01:24:27.536Z,7.15
2019-04-20T01:26:55.081Z,6.72
2019-04-20T01:29:29.432Z,7.70
2019-04-20T01:32:02.383Z,7.62
2019-04-20T01:34:32.579Z,7.92
2019-04-20T01:37:04.420Z,7.47
2019-04-20T01:39:28.687Z,7.85
2019-04-20T01:41:49.682Z,7.35
2019-04-20T01:44:24.468Z,7.08
2019-04-20T01:46:54.858Z,6.67
2019-04-20T01:49:22.433Z,7.25
2019-04-20T01:51:57.740Z,7.37
2019-04-20T01:54:32.518Z,6.97
2019-04-20T01:56:59.242Z,6.87
2019-04-20T01:59:34.501Z,7.10
2019-04-20T02:02:16.099Z,7.58
2019-04-20T02:07:25.563Z,7.10
2019-04-20T02:09:53.559Z,6.92
2019-04-20T02:12:25.353Z,7.47
2019-04-20T02:14:54.069Z,8.05
2019-04-20T02:17:28.888Z,7.53
2019-04-20T02:20:12.545Z,7.83
2019-04-20T02:22:40.811Z,7.67
2019-04-20T02:24:51.035Z,7.62
2019-04-20T02:27:26.908Z,7.70
2019-04-20T02:30:13.784Z,7.37
2019-04-20T02:32:55.571Z,7.20
2019-04-20T02:35:42.622Z,7.72
2019-04-20T02:38:10.466Z,7.03
2019-04-20T02:40:47.182Z,7.08
2019-04-20T02:45:39.933Z,6.80
2019-04-20T02:48:16.010Z,7.37
2019-04-20T02:53:15.622Z,7.40
2019-04-20T02:55:41.944Z,7.55
2019-04-20T02:58:13.306Z,7.12
2019-04-20T03:00:47.445Z,7.45
2019-04-20T03:02:53.122Z,6.83
2019-04-20T03:05:20.438Z,7.58
2019-04-20T03:08:01.148Z,7.30
2019-04-20T03:10:38.982Z,6.85
2019-04-20T03:13:02.821Z,7.15
2019-04-20T03:15:32.823Z,6.47
2019-04-20T03:18:03.419Z,7.60
2019-04-20T03:20:31.409Z,6.37
2019-04-20T03:23:17.651Z,7.60
2019-04-20T03:25:45.268Z,6.65
2019-04-20T03:28:12.578Z,6.83
2019-04-20T03:31:26.357Z,6.72
2019-04-20T03:33:44.179Z,7.60
2019-04-20T03:36:06.034Z,7.42
2019-04-20T03:38:19.839Z,6.65
2019-04-20T03:40:46.467Z,7.37
2019-04-20T03:43:02.691Z,7.15
2019-04-20T03:45:41.256Z,7.05
2019-04-20T03:48:12.344Z,7.90
2019-04-20T03:50:53.278Z,6.33
2019-04-20T03:53:22.686Z,6.95
2019-04-20T03:56:02.301Z,6.95
2019-04-20T03:58:33.512Z,6.97
2019-04-20T04:01:35.901Z,7.08
2019-04-20T04:04:10.532Z,6.78
2019-04-20T04:06:30.671Z,7.33
2019-04-20T04:09:08.930Z,7.42
2019-04-20T04:11:38.144Z,7.20
2019-04-20T04:13:54.625Z,7.00
2019-04-20T04:16:29.416Z,7.65
2019-04-20T04:19:07.784Z,7.00
2019-04-20T04:21:41.159Z,7.20
2019-04-20T04:24:09.475Z,7.12
2019-04-20T04:26:39.088Z,7.20
2019-04-20T04:29:27.153Z,7.92
2019-04-20T04:31:55.451Z,7.95
2019-04-20T04:34:17.412Z,8.43
2019-04-20T04:36:53.714Z,7.53
2019-04-20T04:39:28.840Z,7.92
2019-04-20T04:42:03.663Z,7.25
2019-04-20T04:44:19.275Z,6.97
2019-04-20T04:46:42.372Z,8.50
2019-04-20T04:49:14.958Z,7.95
2019-04-20T04:51:46.742Z,7.65
2019-04-20T04:54:16.542Z,8.85
2019-04-20T04:56:35.519Z,8.80
2019-04-20T04:59:04.367Z,8.40
2019-04-20T05:01:35.342Z,7.62
2019-04-20T05:04:22.777Z,8.70
2019-04-20T05:06:48.548Z,8.93
2019-04-20T05:09:08.071Z,8.20
2019-04-20T05:11:32.580Z,8.65
2019-04-20T05:14:06.666Z,9.08
2019-04-20T05:17:04.558Z,8.50
2019-04-20T05:19:23.520Z,8.88
2019-04-20T05:21:59.853Z,8.33
2019-04-20T05:24:22.677Z,7.95
2019-04-20T05:27:01.947Z,8.23
2019-04-20T05:29:14.512Z,8.95
2019-04-20T05:31:43.178Z,9.33
2019-04-20T05:34:30.832Z,10.72
2019-04-20T05:36:57.965Z,9.55
2019-04-20T05:39:32.387Z,7.78
2019-04-20T05:41:53.185Z,10.60
2019-04-20T05:44:23.754Z,10.13
2019-04-20T05:47:02.917Z,10.45
2019-04-20T05:49:28.456Z,10.08
2019-04-20T05:51:56.022Z,10.85
2019-04-20T05:54:32.561Z,11.65
2019-04-20T05:57:07.902Z,10.70
2019-04-20T05:59:28.362Z,10.48
2019-04-20T06:02:03.543Z,13.28
2019-04-20T06:04:44.556Z,11.75
2019-04-20T06:06:59.625Z,12.47
2019-04-20T06:09:47.917Z,10.68
2019-04-20T06:12:17.945Z,10.65
2019-04-20T06:14:31.530Z,11.30
2019-04-20T06:17:11.284Z,13.20
2019-04-20T06:19:42.169Z,11.38
2019-04-20T06:22:27.119Z,12.43
2019-04-20T06:25:23.499Z,11.63
2019-04-20T06:27:39.886Z,11.70
2019-04-20T06:30:00.899Z,14.07
2019-04-20T06:33:26.695Z,8.70
2019-04-20T06:36:01.251Z,10.40
2019-04-20T06:38:27.918Z,12.40
2019-04-20T06:40:54.150Z,12.35
2019-04-20T06:43:12.482Z,11.83
2019-04-20T06:45:51.216Z,11.25
2019-04-20T06:48:20.330Z,10.88
2019-04-20T06:50:39.099Z,11.25
2019-04-20T06:53:31.904Z,12.30
2019-04-20T06:55:57.736Z,11.75
2019-04-20T06:58:39.583Z,10.70
2019-04-20T07:01:13.679Z,11.22
2019-04-20T07:04:19.228Z,11.10
2019-04-20T07:06:30.787Z,10.58
2019-04-20T07:11:18.714Z,12.82
2019-04-20T07:13:36.145Z,11.65
2019-04-20T07:16:18.297Z,12.63
2019-04-20T07:19:09.172Z,12.53
2019-04-20T07:22:10.495Z,11.03
2019-04-20T07:24:46.071Z,10.20
2019-04-20T07:27:14.922Z,10.18
2019-04-20T07:29:47.048Z,11.10
2019-04-20T07:32:07.555Z,10.55
2019-04-20T07:34:46.986Z,10.08
2019-04-20T07:37:48.505Z,10.65
2019-04-20T07:42:26.372Z,8.75
2019-04-20T07:44:53.143Z,9.75
2019-04-20T07:47:23.943Z,9.40
2019-04-20T07:49:48.351Z,7.42
2019-04-20T07:51:57.523Z,7.87
2019-04-20T07:55:06.106Z,8.45
2019-04-20T07:57:15.845Z,7.65
2019-04-20T07:59:43.035Z,8.35
2019-04-20T08:02:23.548Z,7.65
2019-04-20T08:04:47.370Z,8.40
2019-04-20T08:07:06.793Z,7.15
2019-04-20T08:09:42.029Z,6.58
2019-04-20T08:12:36.334Z,7.40
2019-04-20T08:15:04.938Z,6.67
2019-04-20T08:17:37.380Z,7.37
2019-04-20T08:20:00.112Z,6.83
2019-04-20T08:22:33.972Z,6.85
2019-04-20T08:24:55.311Z,6.75
2019-04-20T08:27:21.253Z,6.70
2019-04-20T08:30:26.786Z,6.87
2019-04-20T08:33:10.903Z,5.23
2019-04-20T08:35:47.715Z,6.20
2019-04-20T08:38:38.326Z,6.25
2019-04-20T08:40:43.730Z,7.10
2019-04-20T08:43:20.830Z,5.95
2019-04-20T08:45:49.494Z,6.67
2019-04-20T08:48:20.249Z,5.97
2019-04-20T08:50:45.001Z,6.30
2019-04-20T08:53:23.178Z,6.10
2019-04-20T08:55:38.939Z,5.20
2019-04-20T08:57:54.270Z,6.30
2019-04-20T09:00:29.307Z,6.35
2019-04-20T09:02:58.641Z,4.70
2019-04-20T09:05:34.848Z,5.65
2019-04-20T09:08:09.320Z,6.20
2019-04-20T09:10:48.204Z,5.60
2019-04-20T09:13:12.065Z,5.67
2019-04-20T09:15:29.937Z,5.65
2019-04-20T09:18:13.135Z,6.17
2019-04-20T09:20:45.825Z,5.78
2019-04-20T09:23:16.693Z,6.17
2019-04-20T09:26:01.826Z,5.28
2019-04-20T09:28:28.616Z,6.03
2019-04-20T09:31:18.042Z,7.47
2019-04-20T09:34:10.471Z,6.15
2019-04-20T09:36:32.528Z,6.35
2019-04-20T09:39:15.029Z,6.08
2019-04-20T09:42:01.208Z,5.53
2019-04-20T09:44:31.504Z,6.00
2019-04-20T09:47:01.338Z,6.55
2019-04-20T09:49:39.985Z,6.30
2019-04-20T09:52:13.341Z,5.42
2019-04-20T09:54:52.619Z,7.28
2019-04-20T09:57:19.152Z,5.97
2019-04-20T09:59:50.016Z,5.95
2019-04-20T10:02:08.750Z,5.67
2019-04-20T10:04:35.455Z,6.17
2019-04-20T10:07:11.180Z,5.78
2019-04-20T10:09:38.133Z,6.30
2019-04-20T10:12:03.875Z,7.30
2019-04-20T10:14:33.112Z,5.92
2019-04-20T10:17:02.127Z,6.53
2019-04-20T10:19:34.043Z,6.62
2019-04-20T10:22:00.503Z,6.83
2019-04-20T10:24:28.701Z,6.83
2019-04-20T10:26:56.916Z,6.25
2019-04-20T10:29:25.820Z,7.05
2019-04-20T10:31:57.150Z,6.40
2019-04-20T10:34:24.243Z,6.35
2019-04-20T10:36:55.438Z,7.22
2019-04-20T10:39:26.549Z,5.80
2019-04-20T10:41:58.773Z,6.08
2019-04-20T10:44:29.307Z,5.85
2019-04-20T10:46:59.257Z,5.67
2019-04-20T10:49:27.468Z,5.80
2019-04-20T10:51:55.842Z,6.55
2019-04-20T10:54:24.666Z,5.75
2019-04-20T10:56:52.963Z,4.85
2019-04-20T10:59:21.496Z,5.20
2019-04-20T11:01:49.809Z,6.30
2019-04-20T11:04:18.802Z,5.95
2019-04-20T11:06:47.072Z,5.55
2019-04-20T11:09:16.461Z,6.05
2019-04-20T11:11:46.017Z,4.75
2019-04-20T11:14:22.811Z,5.58
2019-04-20T11:16:44.551Z,5.67
2019-04-20T11:19:13.546Z,4.90
2019-04-20T11:21:41.849Z,4.92
2019-04-20T11:24:10.138Z,4.45
2019-04-20T11:26:40.527Z,4.62
2019-04-20T11:29:08.467Z,4.70
2019-04-20T11:31:42.224Z,5.60
2019-04-20T11:34:07.952Z,6.47
2019-04-20T11:36:37.062Z,5.92
2019-04-20T11:39:07.181Z,5.60
2019-04-20T11:41:37.303Z,6.47
2019-04-20T11:44:07.604Z,6.42
2019-04-20T11:46:38.896Z,6.70
2019-04-20T11:49:15.428Z,6.97
2019-04-20T11:51:45.463Z,5.08
2019-04-20T11:54:14.678Z,4.33
2019-04-20T11:56:45.774Z,5.22
2019-04-20T11:59:12.915Z,4.95
2019-04-20T12:01:54.912Z,4.47
2019-04-20T12:04:33.986Z,4.83
2019-04-20T12:06:54.842Z,4.87
2019-04-20T12:09:24.263Z,5.05
2019-04-20T12:12:04.240Z,5.12
2019-04-20T12:14:24.938Z,4.72
2019-04-20T12:16:53.427Z,4.83
2019-04-20T12:19:23.388Z,4.15
2019-04-20T12:21:51.744Z,3.98
2019-04-20T12:24:20.442Z,4.25
2019-04-20T12:26:48.967Z,4.58
2019-04-20T12:29:17.709Z,4.92
2019-04-20T12:31:51.190Z,5.30
2019-04-20T12:34:16.158Z,4.65
2019-04-20T12:36:44.879Z,5.20
2019-04-20T12:39:13.347Z,5.03
2019-04-20T12:41:49.808Z,4.47
2019-04-20T12:44:12.236Z,4.35
2019-04-20T12:46:41.512Z,4.45
2019-04-20T12:49:09.815Z,4.75
2019-04-20T12:51:47.801Z,4.67
2019-04-20T12:54:08.913Z,5.47
2019-04-20T12:56:38.343Z,4.10
2019-04-20T12:59:07.480Z,4.20
2019-04-20T13:01:35.743Z,4.72
2019-04-20T13:04:07.547Z,5.33
2019-04-20T13:06:37.296Z,4.92
2019-04-20T13:09:10.768Z,4.22
2019-04-20T13:11:59.056Z,4.45
2019-04-20T13:14:40.340Z,4.47
2019-04-20T13:17:08.539Z,4.47
2019-04-20T13:19:37.429Z,4.50
2019-04-20T13:22:07.226Z,4.70
2019-04-20T13:24:36.874Z,4.58
2019-04-20T13:27:05.132Z,4.95
2019-04-20T13:29:33.345Z,4.42
2019-04-20T13:32:02.141Z,4.67
2019-04-20T13:34:31.785Z,4.90
2019-04-20T13:37:00.250Z,4.28
2019-04-20T13:39:28.940Z,5.47
2019-04-20T13:42:09.654Z,5.92
2019-04-20T13:44:27.628Z,5.62
2019-04-20T13:46:56.762Z,5.28
2019-04-20T13:49:25.205Z,5.17
2019-04-20T13:51:54.880Z,5.75
2019-04-20T13:54:26.413Z,5.37
2019-04-20T13:56:55.704Z,6.37
2019-04-20T13:59:35.193Z,5.92
2019-04-20T14:02:06.758Z,5.70
2019-04-20T14:04:36.882Z,5.47
2019-04-20T14:07:05.747Z,5.58
2019-04-20T14:09:35.372Z,5.15
2019-04-20T14:12:13.992Z,5.50
2019-04-20T14:14:34.976Z,5.08
2019-04-20T14:17:03.359Z,5.17
2019-04-20T14:19:31.573Z,5.40
2019-04-20T14:21:59.870Z,5.80
2019-04-20T14:24:28.932Z,5.87
2019-04-20T14:26:57.221Z,5.40
2019-04-20T14:29:25.452Z,5.53
2019-04-20T14:31:53.647Z,5.05
2019-04-20T14:34:22.677Z,5.20
2019-04-20T14:36:50.979Z,5.47
2019-04-20T14:39:20.384Z,5.50
2019-04-20T14:41:48.705Z,4.92
2019-04-20T14:44:21.535Z,5.17
2019-04-20T14:46:49.816Z,5.17
2019-04-20T14:49:18.690Z,5.78
2019-04-20T14:51:47.760Z,5.37
2019-04-20T14:54:17.157Z,6.00
2019-04-20T14:56:45.490Z,6.08
2019-04-20T14:59:15.730Z,5.75
2019-04-20T15:01:48.200Z,5.03
2019-04-20T15:04:19.600Z,5.62
2019-04-20T15:06:46.616Z,5.62
2019-04-20T15:09:18.942Z,5.60
2019-04-20T15:11:48.242Z,4.97
2019-04-20T15:14:16.756Z,5.62
2019-04-20T15:16:44.991Z,5.35
2019-04-20T15:19:15.731Z,6.15
2019-04-20T15:21:45.570Z,5.58
2019-04-20T15:24:13.797Z,6.53
2019-04-20T15:26:42.585Z,6.87
2019-04-20T15:29:10.825Z,6.00
2019-04-20T15:31:39.124Z,6.58
2019-04-20T15:34:08.652Z,5.85
2019-04-20T15:36:38.169Z,6.33
2019-04-20T15:39:21.031Z,6.00
2019-04-20T15:41:49.602Z,7.00
2019-04-20T15:44:17.839Z,6.95
2019-04-20T15:46:46.056Z,6.00
2019-04-20T15:49:15.748Z,6.10
2019-04-20T15:51:44.159Z,6.55
2019-04-20T15:54:13.546Z,6.85
2019-04-20T15:56:49.726Z,6.65
2019-04-20T15:59:12.641Z,6.37
2019-04-20T16:01:43.438Z,7.35
2019-04-20T16:04:21.684Z,5.78
2019-04-20T16:06:43.391Z,8.75
2019-04-20T16:09:12.387Z,7.05
2019-04-20T16:11:41.237Z,6.72
2019-04-20T16:14:09.579Z,7.42
2019-04-20T16:16:37.799Z,7.30
2019-04-20T16:19:15.854Z,6.67
2019-04-20T16:21:37.528Z,6.40
2019-04-20T16:24:08.914Z,7.90
2019-04-20T16:26:39.908Z,6.87
2019-04-20T16:29:08.409Z,6.95
2019-04-20T16:31:36.617Z,6.97
2019-04-20T16:34:05.319Z,6.65
2019-04-20T16:36:34.626Z,7.00
2019-04-20T16:39:03.694Z,6.72
2019-04-20T16:41:32.644Z,6.67
2019-04-20T16:44:00.926Z,7.12
2019-04-20T16:46:30.128Z,6.70
2019-04-20T16:48:58.968Z,7.97
2019-04-20T16:51:27.344Z,7.30
2019-04-20T16:53:56.162Z,7.75
2019-04-20T16:56:24.585Z,7.70
2019-04-20T16:58:54.610Z,7.92
2019-04-20T17:01:23.499Z,7.95
2019-04-20T17:04:01.839Z,7.15
2019-04-20T17:06:22.304Z,7.45
2019-04-20T17:08:51.370Z,6.78
2019-04-20T17:11:19.656Z,7.25
2019-04-20T17:13:50.091Z,7.03
2019-04-20T17:16:17.810Z,7.22
2019-04-20T17:18:49.958Z,6.92
2019-04-20T17:21:22.991Z,6.92
2019-04-20T17:23:51.204Z,7.08
2019-04-20T17:26:21.139Z,6.08
2019-04-20T17:28:57.751Z,6.97
2019-04-20T17:31:31.552Z,6.22
2019-04-20T17:34:11.111Z,5.60
2019-04-20T17:36:33.110Z,5.78
2019-04-20T17:39:06.308Z,6.50
2019-04-20T17:41:50.710Z,6.25
2019-04-20T17:44:18.025Z,5.80
2019-04-20T17:46:43.622Z,6.58
2019-04-20T17:49:14.162Z,6.25
2019-04-20T17:51:53.471Z,6.95
2019-04-20T17:54:06.866Z,13.55
2019-04-20T17:56:34.356Z,7.70
2019-04-20T17:59:03.990Z,6.35
2019-04-20T18:02:05.350Z,6.97
2019-04-20T18:04:55.170Z,6.90
2019-04-20T18:07:04.354Z,6.85
2019-04-20T18:09:46.163Z,6.78
2019-04-20T18:11:58.547Z,6.95
2019-04-20T18:14:37.408Z,6.42
2019-04-20T18:17:18.041Z,6.45
2019-04-20T18:19:38.814Z,6.78
2019-04-20T18:22:25.769Z,6.22
2019-04-20T18:25:12.405Z,6.55
2019-04-20T18:27:43.427Z,6.83
2019-04-20T18:30:10.730Z,6.03
2019-04-20T18:32:31.503Z,6.35
2019-04-20T18:35:06.968Z,5.85
2019-04-20T18:37:34.533Z,6.53
2019-04-20T18:40:10.686Z,6.78
2019-04-20T18:42:43.776Z,5.78
2019-04-20T18:45:26.724Z,6.65
2019-04-20T18:48:04.443Z,6.92
2019-04-20T18:50:18.418Z,7.17
2019-04-20T18:52:40.306Z,8.18
2019-04-20T18:55:17.339Z,8.08
2019-04-20T18:57:39.769Z,7.30
2019-04-20T19:00:17.984Z,7.40
2019-04-20T19:02:42.959Z,8.08
2019-04-20T19:05:08.618Z,9.43
2019-04-20T19:07:41.556Z,8.55
2019-04-20T19:10:14.750Z,8.38
2019-04-20T19:12:47.779Z,9.88
2019-04-20T19:15:43.942Z,9.18
2019-04-20T19:18:11.539Z,7.80
2019-04-20T19:20:32.922Z,8.35
2019-04-20T19:23:06.141Z,7.60
2019-04-20T19:25:37.460Z,8.70
2019-04-20T19:28:05.537Z,9.05
2019-04-20T19:30:44.101Z,7.90
2019-04-20T19:33:23.056Z,8.18
2019-04-20T19:35:48.123Z,7.72
2019-04-20T19:38:12.573Z,8.93
2019-04-20T19:40:47.944Z,7.37
2019-04-20T19:43:15.573Z,8.38
2019-04-20T19:45:56.234Z,8.03
2019-04-20T19:48:17.435Z,9.75
2019-04-20T19:51:03.552Z,9.20
2019-04-20T19:53:28.336Z,9.18
2019-04-20T19:55:47.845Z,8.93
2019-04-20T19:58:17.506Z,8.50
2019-04-20T20:00:57.730Z,8.68
2019-04-20T20:03:25.645Z,9.25
2019-04-20T20:05:55.858Z,9.90
2019-04-20T20:08:29.044Z,8.85
2019-04-20T20:10:55.496Z,8.93
2019-04-20T20:13:33.242Z,10.35
2019-04-20T20:16:02.427Z,10.45
2019-04-20T20:18:40.690Z,10.65
2019-04-20T20:21:15.193Z,9.90
2019-04-20T20:23:32.134Z,9.33
2019-04-20T20:26:02.405Z,10.18
2019-04-20T20:28:41.649Z,11.12
2019-04-20T20:31:12.824Z,10.08
2019-04-20T20:33:45.435Z,9.90
2019-04-20T20:36:11.313Z,9.30
2019-04-20T20:38:37.687Z,9.98
2019-04-20T20:41:10.311Z,10.23
2019-04-20T20:43:44.685Z,10.18
2019-04-20T20:46:15.314Z,10.40
2019-04-20T20:48:54.342Z,10.10
2019-04-20T20:51:14.966Z,9.80
2019-04-20T20:53:43.150Z,9.55
2019-04-20T20:56:10.741Z,9.58
2019-04-20T20:58:45.166Z,9.20
2019-04-20T21:01:10.073Z,8.85
2019-04-20T21:03:38.425Z,9.03
2019-04-20T21:06:00.825Z,9.10
2019-04-20T21:08:29.310Z,9.13
2019-04-20T21:10:57.620Z,9.25
2019-04-20T21:13:33.275Z,8.35
2019-04-20T21:16:03.063Z,9.08
2019-04-20T21:18:44.906Z,8.80
2019-04-20T21:21:13.019Z,8.73
2019-04-20T21:23:40.765Z,8.43
2019-04-20T21:26:12.835Z,7.78
2019-04-20T21:28:43.968Z,8.73
2019-04-20T21:31:18.142Z,8.95
2019-04-20T21:33:42.873Z,8.83
2019-04-20T21:36:16.597Z,9.38
2019-04-20T21:38:44.637Z,9.10
2019-04-20T21:41:16.203Z,9.10
2019-04-20T21:43:44.585Z,9.10
2019-04-20T21:46:14.024Z,8.03
2019-04-20T21:48:56.734Z,9.08
2019-04-20T21:51:29.357Z,8.58
2019-04-20T21:53:44.282Z,7.70
2019-04-20T21:56:12.801Z,9.35
2019-04-20T21:58:49.221Z,8.75
2019-04-20T22:01:23.980Z,7.87
2019-04-20T22:03:42.527Z,8.98
2019-04-20T22:06:11.079Z,8.28
2019-04-20T22:08:44.540Z,9.05
2019-04-20T22:11:09.222Z,8.03
2019-04-20T22:13:40.148Z,7.85
2019-04-20T22:16:11.005Z,8.33
2019-04-20T22:18:48.201Z,8.35
2019-04-20T22:21:18.777Z,8.45
2019-04-20T22:23:54.958Z,7.97
2019-04-20T22:26:18.707Z,8.65
2019-04-20T22:28:38.257Z,8.35
2019-04-20T22:31:06.525Z,8.78
2019-04-20T22:33:40.012Z,8.70
2019-04-20T22:36:09.435Z,8.30
2019-04-20T22:38:46.524Z,8.43
2019-04-20T22:41:13.887Z,8.38
2019-04-20T22:43:40.258Z,8.58
2019-04-20T22:46:07.740Z,7.58
2019-04-20T22:48:39.307Z,7.97
2019-04-20T22:51:19.677Z,9.43
2019-04-20T22:53:48.578Z,8.73
2019-04-20T22:56:24.331Z,8.63
2019-04-20T22:58:49.999Z,7.42
2019-04-20T23:01:17.418Z,7.83
2019-04-20T23:03:36.742Z,7.87
2019-04-20T23:06:05.098Z,7.35
2019-04-20T23:08:33.314Z,7.53
2019-04-20T23:11:04.486Z,8.33
2019-04-20T23:13:36.711Z,8.03
2019-04-20T23:16:02.643Z,8.13
2019-04-20T23:18:31.943Z,8.45
2019-04-20T23:21:03.706Z,8.58
2019-04-20T23:23:30.985Z,9.43
2019-04-20T23:26:01.071Z,9.63
2019-04-20T23:28:29.459Z,9.08
2019-04-20T23:31:03.855Z,9.25
2019-04-20T23:33:27.734Z,8.28
2019-04-20T23:35:58.240Z,8.73
2019-04-20T23:38:26.437Z,8.10
2019-04-20T23:40:55.601Z,8.53
2019-04-20T23:43:39.287Z,9.50
2019-04-20T23:46:24.641Z,8.93
2019-04-20T23:49:18.430Z,8.00
2019-04-20T23:51:59.027Z,9.23
2019-04-20T23:54:15.809Z,8.13
2019-04-20T23:56:37.624Z,8.53
2019-04-20T23:59:06.459Z,9.63
